New Britain, Connecticut
Current Conditions -  °F | °C
As of 3:07 AM on Tuesday 27 Jan 2015 (Local Time) from KHFD Reporting Station
Moderate Fog Moderate Fog  
Wind Chill:   Ceiling: 400
Heat Index: 16°   Visibility: 0.25mi
Dew Point: 13°   Wind: 12mph
Humidity: 88%   Direction: 360°N
Pressure: 29.72"   Gusts: 23mph
Location:  41.67°N, 72.78°W
Report Text: KHFD 270807Z AUTO 36010G20KT 1/4SM FZFG VV004 M09/M11 A2972 RMK AO2 P0001 T10891106 PWINO FZRANO $
Loading
Personal Weather Stations






























Interactive Weather Map New forecast layout! Learn more

10-Day Weather Forecast

Advertisements
Track Severe Weather on mobile